sensor_id;sensor_type;location;lat;lon;timestamp;P1;durP1;ratioP1;P2;durP2;ratioP2
7205;SDS011;3644;53.480;10.004;2024-01-10T00:01:07;14.53;;;10.23;;
7205;SDS011;3644;53.480;10.004;2024-01-10T00:03:33;16.87;;;10.50;;
7205;SDS011;3644;53.480;10.004;2024-01-10T00:05:58;16.90;;;11.20;;
7205;SDS011;3644;53.480;10.004;2024-01-10T00:08:24;25.40;;;12.50;;
7205;SDS011;3644;53.480;10.004;2024-01-10T00:10:51;19.40;;;10.43;;
7205;SDS011;3644;53.480;10.004;2024-01-10T00:13:19;19.30;;;10.97;;
7205;SDS011;3644;53.480;10.004;2024-01-10T00:15:45;24.00;;;11.10;;
7205;SDS011;3644;53.480;10.004;2024-01-10T00:18:10;24.97;;;12.13;;
7205;SDS011;3644;53.480;10.004;2024-01-10T00:20:36;26.97;;;14.50;;
7205;SDS011;3644;53.480;10.004;2024-01-10T00:23:01;27.50;;;12.80;;
7205;SDS011;3644;53.480;10.004;2024-01-10T00:25:27;32.53;;;13.40;;
7205;SDS011;3644;53.480;10.004;2024-01-10T00:27:52;24.80;;;11.50;;
7205;SDS011;3644;53.480;10.004;2024-01-10T00:30:18;22.90;;;10.87;;
7205;SDS011;3644;53.480;10.004;2024-01-10T00:32:43;21.80;;;11.10;;
7205;SDS011;3644;53.480;10.004;2024-01-10T00:35:09;21.90;;;12.40;;
7205;SDS011;3644;53.480;10.004;2024-01-10T00:37:35;23.60;;;10.40;;
7205;SDS011;3644;53.480;10.004;2024-01-10T00:40:01;27.67;;;10.90;;
7205;SDS011;3644;53.480;10.004;2024-01-10T00:42:26;21.03;;;10.53;;
7205;SDS011;3644;53.480;10.004;2024-01-10T00:44:52;19.23;;;10.53;;
7205;SDS011;3644;53.480;10.004;2024-01-10T00:47:17;16.30;;;11.23;;
7205;SDS011;3644;53.480;10.004;2024-01-10T00:49:43;23.47;;;11.20;;
7205;SDS011;3644;53.480;10.004;2024-01-10T00:52:08;37.27;;;12.30;;
7205;SDS011;3644;53.480;10.004;2024-01-10T00:54:34;17.93;;;11.87;;
7205;SDS011;3644;53.480;10.004;2024-01-10T00:56:59;26.40;;;12.43;;
7205;SDS011;3644;53.480;10.004;2024-01-10T00:59:25;22.30;;;12.40;;
7205;SDS011;3644;53.480;10.004;2024-01-10T01:01:50;17.03;;;12.07;;
7205;SDS011;3644;53.480;10.004;2024-01-10T01:04:16;27.07;;;11.60;;
7205;SDS011;3644;53.480;10.004;2024-01-10T01:06:42;20.33;;;11.83;;
7205;SDS011;3644;53.480;10.004;2024-01-10T01:09:07;23.07;;;11.20;;
7205;SDS011;3644;53.480;10.004;2024-01-10T01:11:33;23.00;;;11.60;;
7205;SDS011;3644;53.480;10.004;2024-01-10T01:13:58;23.60;;;13.10;;
7205;SDS011;3644;53.480;10.004;2024-01-10T01:16:24;20.77;;;12.50;;
7205;SDS011;3644;53.480;10.004;2024-01-10T01:18:49;19.83;;;11.20;;
7205;SDS011;3644;53.480;10.004;2024-01-10T01:21:15;29.53;;;14.70;;
7205;SDS011;3644;53.480;10.004;2024-01-10T01:23:40;24.20;;;11.70;;
7205;SDS011;3644;53.480;10.004;2024-01-10T01:26:06;26.03;;;14.30;;
7205;SDS011;3644;53.480;10.004;2024-01-10T01:28:31;28.43;;;11.87;;
7205;SDS011;3644;53.480;10.004;2024-01-10T01:30:57;24.27;;;12.70;;
7205;SDS011;3644;53.480;10.004;2024-01-10T01:33:22;19.47;;;12.70;;
7205;SDS011;3644;53.480;10.004;2024-01-10T01:35:48;18.43;;;12.03;;
7205;SDS011;3644;53.480;10.004;2024-01-10T01:38:13;20.70;;;12.13;;
7205;SDS011;3644;53.480;10.004;2024-01-10T01:40:39;26.67;;;11.70;;
7205;SDS011;3644;53.480;10.004;2024-01-10T01:43:20;22.80;;;12.53;;
7205;SDS011;3644;53.480;10.004;2024-01-10T01:45:48;21.70;;;12.00;;
7205;SDS011;3644;53.480;10.004;2024-01-10T01:48:16;28.70;;;14.10;;
7205;SDS011;3644;53.480;10.004;2024-01-10T01:50:42;26.73;;;14.10;;
7205;SDS011;3644;53.480;10.004;2024-01-10T01:53:09;19.87;;;13.30;;
7205;SDS011;3644;53.480;10.004;2024-01-10T01:55:35;22.73;;;14.33;;
7205;SDS011;3644;53.480;10.004;2024-01-10T01:58:01;15.87;;;11.30;;
7205;SDS011;3644;53.480;10.004;2024-01-10T02:00:27;25.77;;;11.50;;
7205;SDS011;3644;53.480;10.004;2024-01-10T02:02:53;28.10;;;13.77;;
7205;SDS011;3644;53.480;10.004;2024-01-10T02:05:18;24.10;;;13.20;;
7205;SDS011;3644;53.480;10.004;2024-01-10T02:07:44;30.93;;;13.57;;
7205;SDS011;3644;53.480;10.004;2024-01-10T02:10:09;23.60;;;12.70;;
7205;SDS011;3644;53.480;10.004;2024-01-10T02:12:35;23.37;;;13.00;;
7205;SDS011;3644;53.480;10.004;2024-01-10T02:15:01;27.23;;;13.43;;
7205;SDS011;3644;53.480;10.004;2024-01-10T02:17:28;22.23;;;14.00;;
7205;SDS011;3644;53.480;10.004;2024-01-10T02:20:10;23.87;;;13.67;;
7205;SDS011;3644;53.480;10.004;2024-01-10T02:22:40;21.03;;;14.17;;
7205;SDS011;3644;53.480;10.004;2024-01-10T02:25:09;27.17;;;14.10;;
7205;SDS011;3644;53.480;10.004;2024-01-10T02:27:36;18.13;;;10.97;;
7205;SDS011;3644;53.480;10.004;2024-01-10T02:30:05;26.33;;;12.83;;
7205;SDS011;3644;53.480;10.004;2024-01-10T02:32:31;23.30;;;12.87;;
7205;SDS011;3644;53.480;10.004;2024-01-10T02:34:57;26.80;;;13.90;;
7205;SDS011;3644;53.480;10.004;2024-01-10T02:37:23;29.23;;;15.23;;
7205;SDS011;3644;53.480;10.004;2024-01-10T02:39:49;24.57;;;13.77;;
7205;SDS011;3644;53.480;10.004;2024-01-10T02:42:15;27.00;;;14.13;;
7205;SDS011;3644;53.480;10.004;2024-01-10T02:44:41;29.67;;;14.53;;
7205;SDS011;3644;53.480;10.004;2024-01-10T02:47:06;41.90;;;15.33;;
7205;SDS011;3644;53.480;10.004;2024-01-10T02:49:32;40.87;;;16.40;;
7205;SDS011;3644;53.480;10.004;2024-01-10T02:51:58;33.87;;;17.80;;
7205;SDS011;3644;53.480;10.004;2024-01-10T02:54:24;30.33;;;16.60;;
7205;SDS011;3644;53.480;10.004;2024-01-10T02:56:49;28.80;;;16.90;;
7205;SDS011;3644;53.480;10.004;2024-01-10T02:59:15;49.73;;;16.93;;
7205;SDS011;3644;53.480;10.004;2024-01-10T03:01:41;39.47;;;16.13;;
7205;SDS011;3644;53.480;10.004;2024-01-10T03:04:06;26.73;;;14.77;;
7205;SDS011;3644;53.480;10.004;2024-01-10T03:06:32;27.53;;;16.10;;
7205;SDS011;3644;53.480;10.004;2024-01-10T03:08:57;30.50;;;15.37;;
7205;SDS011;3644;53.480;10.004;2024-01-10T03:11:23;37.97;;;15.00;;
7205;SDS011;3644;53.480;10.004;2024-01-10T03:13:49;27.77;;;13.63;;
7205;SDS011;3644;53.480;10.004;2024-01-10T03:16:16;28.17;;;14.53;;
7205;SDS011;3644;53.480;10.004;2024-01-10T03:18:42;42.73;;;15.90;;
7205;SDS011;3644;53.480;10.004;2024-01-10T03:21:07;34.13;;;18.00;;
7205;SDS011;3644;53.480;10.004;2024-01-10T03:23:33;21.60;;;14.47;;
7205;SDS011;3644;53.480;10.004;2024-01-10T03:25:58;30.50;;;14.50;;
7205;SDS011;3644;53.480;10.004;2024-01-10T03:28:24;35.67;;;16.30;;
7205;SDS011;3644;53.480;10.004;2024-01-10T03:30:49;29.20;;;16.20;;
7205;SDS011;3644;53.480;10.004;2024-01-10T03:33:16;37.70;;;16.60;;
7205;SDS011;3644;53.480;10.004;2024-01-10T03:35:41;35.33;;;16.27;;
7205;SDS011;3644;53.480;10.004;2024-01-10T03:38:07;34.17;;;14.57;;
7205;SDS011;3644;53.480;10.004;2024-01-10T03:40:33;27.37;;;14.53;;
7205;SDS011;3644;53.480;10.004;2024-01-10T03:42:58;34.67;;;15.67;;
7205;SDS011;3644;53.480;10.004;2024-01-10T03:45:24;24.63;;;14.77;;
7205;SDS011;3644;53.480;10.004;2024-01-10T03:47:50;34.60;;;14.67;;
7205;SDS011;3644;53.480;10.004;2024-01-10T03:50:19;40.00;;;15.07;;
7205;SDS011;3644;53.480;10.004;2024-01-10T03:52:45;28.70;;;13.80;;
7205;SDS011;3644;53.480;10.004;2024-01-10T03:55:11;31.07;;;15.27;;
7205;SDS011;3644;53.480;10.004;2024-01-10T03:57:41;27.00;;;13.70;;
7205;SDS011;3644;53.480;10.004;2024-01-10T04:00:08;29.63;;;16.10;;
7205;SDS011;3644;53.480;10.004;2024-01-10T04:02:36;42.03;;;16.50;;
7205;SDS011;3644;53.480;10.004;2024-01-10T04:05:05;31.23;;;15.03;;
7205;SDS011;3644;53.480;10.004;2024-01-10T04:07:35;29.43;;;16.03;;
7205;SDS011;3644;53.480;10.004;2024-01-10T04:10:01;36.67;;;16.63;;
7205;SDS011;3644;53.480;10.004;2024-01-10T04:12:28;34.43;;;15.77;;
7205;SDS011;3644;53.480;10.004;2024-01-10T04:14:53;34.40;;;16.47;;
7205;SDS011;3644;53.480;10.004;2024-01-10T04:17:18;32.13;;;13.97;;
7205;SDS011;3644;53.480;10.004;2024-01-10T04:19:44;41.17;;;14.00;;
7205;SDS011;3644;53.480;10.004;2024-01-10T04:22:10;28.73;;;14.67;;
7205;SDS011;3644;53.480;10.004;2024-01-10T04:24:35;30.47;;;14.47;;
7205;SDS011;3644;53.480;10.004;2024-01-10T04:27:01;41.13;;;16.17;;
7205;SDS011;3644;53.480;10.004;2024-01-10T04:29:26;19.97;;;11.37;;
7205;SDS011;3644;53.480;10.004;2024-01-10T04:31:52;24.53;;;14.67;;
7205;SDS011;3644;53.480;10.004;2024-01-10T04:34:17;33.53;;;14.53;;
7205;SDS011;3644;53.480;10.004;2024-01-10T04:36:43;31.73;;;14.33;;
7205;SDS011;3644;53.480;10.004;2024-01-10T04:39:09;25.97;;;14.67;;
7205;SDS011;3644;53.480;10.004;2024-01-10T04:41:34;25.83;;;12.80;;
7205;SDS011;3644;53.480;10.004;2024-01-10T04:44:00;28.53;;;13.20;;
7205;SDS011;3644;53.480;10.004;2024-01-10T04:46:25;28.20;;;13.50;;
7205;SDS011;3644;53.480;10.004;2024-01-10T04:48:51;25.80;;;13.47;;
7205;SDS011;3644;53.480;10.004;2024-01-10T04:51:16;26.47;;;13.87;;
7205;SDS011;3644;53.480;10.004;2024-01-10T04:53:42;25.93;;;15.07;;
7205;SDS011;3644;53.480;10.004;2024-01-10T04:56:08;26.00;;;12.70;;
7205;SDS011;3644;53.480;10.004;2024-01-10T04:58:33;22.63;;;12.37;;
7205;SDS011;3644;53.480;10.004;2024-01-10T05:01:00;21.60;;;11.97;;
7205;SDS011;3644;53.480;10.004;2024-01-10T05:03:25;25.33;;;12.30;;
7205;SDS011;3644;53.480;10.004;2024-01-10T05:05:51;24.00;;;11.80;;
7205;SDS011;3644;53.480;10.004;2024-01-10T05:08:16;26.93;;;13.20;;
7205;SDS011;3644;53.480;10.004;2024-01-10T05:10:45;23.50;;;13.23;;
7205;SDS011;3644;53.480;10.004;2024-01-10T05:13:10;22.20;;;12.23;;
7205;SDS011;3644;53.480;10.004;2024-01-10T05:15:37;27.80;;;13.30;;
7205;SDS011;3644;53.480;10.004;2024-01-10T05:18:02;21.30;;;13.10;;
7205;SDS011;3644;53.480;10.004;2024-01-10T05:20:28;26.87;;;13.23;;
7205;SDS011;3644;53.480;10.004;2024-01-10T05:22:53;24.60;;;13.50;;
7205;SDS011;3644;53.480;10.004;2024-01-10T05:25:19;23.20;;;12.70;;
7205;SDS011;3644;53.480;10.004;2024-01-10T05:27:44;23.13;;;12.93;;
7205;SDS011;3644;53.480;10.004;2024-01-10T05:30:10;27.40;;;14.30;;
7205;SDS011;3644;53.480;10.004;2024-01-10T05:32:37;26.53;;;13.03;;
7205;SDS011;3644;53.480;10.004;2024-01-10T05:35:03;30.83;;;13.77;;
7205;SDS011;3644;53.480;10.004;2024-01-10T05:37:30;33.33;;;16.23;;
7205;SDS011;3644;53.480;10.004;2024-01-10T05:39:55;23.27;;;13.40;;
7205;SDS011;3644;53.480;10.004;2024-01-10T05:42:21;29.37;;;12.87;;
7205;SDS011;3644;53.480;10.004;2024-01-10T05:44:46;26.80;;;15.37;;
7205;SDS011;3644;53.480;10.004;2024-01-10T05:47:12;28.33;;;16.40;;
7205;SDS011;3644;53.480;10.004;2024-01-10T05:49:38;21.37;;;13.70;;
7205;SDS011;3644;53.480;10.004;2024-01-10T05:52:03;22.90;;;12.83;;
7205;SDS011;3644;53.480;10.004;2024-01-10T05:54:29;25.97;;;14.03;;
7205;SDS011;3644;53.480;10.004;2024-01-10T05:56:54;25.60;;;14.60;;
7205;SDS011;3644;53.480;10.004;2024-01-10T05:59:20;24.13;;;13.53;;
7205;SDS011;3644;53.480;10.004;2024-01-10T06:01:45;29.83;;;14.50;;
7205;SDS011;3644;53.480;10.004;2024-01-10T06:04:11;28.90;;;15.30;;
7205;SDS011;3644;53.480;10.004;2024-01-10T06:06:36;21.30;;;13.30;;
7205;SDS011;3644;53.480;10.004;2024-01-10T06:09:02;26.43;;;13.77;;
7205;SDS011;3644;53.480;10.004;2024-01-10T06:11:28;22.17;;;14.10;;
7205;SDS011;3644;53.480;10.004;2024-01-10T06:13:54;27.97;;;14.57;;
7205;SDS011;3644;53.480;10.004;2024-01-10T06:16:20;26.27;;;15.07;;
7205;SDS011;3644;53.480;10.004;2024-01-10T06:18:45;23.83;;;12.50;;
7205;SDS011;3644;53.480;10.004;2024-01-10T06:21:11;20.80;;;12.00;;
7205;SDS011;3644;53.480;10.004;2024-01-10T06:23:36;24.77;;;13.07;;
7205;SDS011;3644;53.480;10.004;2024-01-10T06:26:01;27.30;;;13.30;;
7205;SDS011;3644;53.480;10.004;2024-01-10T06:28:27;29.83;;;15.37;;
7205;SDS011;3644;53.480;10.004;2024-01-10T06:30:53;23.57;;;13.33;;
7205;SDS011;3644;53.480;10.004;2024-01-10T06:33:18;22.97;;;13.57;;
7205;SDS011;3644;53.480;10.004;2024-01-10T06:35:45;28.77;;;14.70;;
7205;SDS011;3644;53.480;10.004;2024-01-10T06:38:10;26.00;;;14.20;;
7205;SDS011;3644;53.480;10.004;2024-01-10T06:40:36;29.30;;;13.40;;
7205;SDS011;3644;53.480;10.004;2024-01-10T06:43:02;25.50;;;12.47;;
7205;SDS011;3644;53.480;10.004;2024-01-10T06:45:28;22.90;;;11.43;;
7205;SDS011;3644;53.480;10.004;2024-01-10T06:47:54;25.40;;;13.57;;
7205;SDS011;3644;53.480;10.004;2024-01-10T06:50:19;24.60;;;11.93;;
7205;SDS011;3644;53.480;10.004;2024-01-10T06:52:46;22.67;;;10.80;;
7205;SDS011;3644;53.480;10.004;2024-01-10T06:55:12;24.07;;;12.83;;
7205;SDS011;3644;53.480;10.004;2024-01-10T06:57:37;42.53;;;13.67;;
7205;SDS011;3644;53.480;10.004;2024-01-10T07:00:03;19.23;;;11.57;;
7205;SDS011;3644;53.480;10.004;2024-01-10T07:02:32;15.30;;;10.70;;
7205;SDS011;3644;53.480;10.004;2024-01-10T07:04:59;23.67;;;12.60;;
7205;SDS011;3644;53.480;10.004;2024-01-10T07:07:24;27.83;;;11.47;;
7205;SDS011;3644;53.480;10.004;2024-01-10T07:09:50;21.30;;;11.43;;
7205;SDS011;3644;53.480;10.004;2024-01-10T07:12:15;35.63;;;12.27;;
7205;SDS011;3644;53.480;10.004;2024-01-10T07:14:41;21.90;;;9.93;;
7205;SDS011;3644;53.480;10.004;2024-01-10T07:17:06;18.83;;;10.60;;
7205;SDS011;3644;53.480;10.004;2024-01-10T07:19:32;23.47;;;13.20;;
7205;SDS011;3644;53.480;10.004;2024-01-10T07:21:57;28.10;;;11.77;;
7205;SDS011;3644;53.480;10.004;2024-01-10T07:24:23;22.67;;;12.53;;
7205;SDS011;3644;53.480;10.004;2024-01-10T07:26:48;22.03;;;11.37;;
7205;SDS011;3644;53.480;10.004;2024-01-10T07:29:14;21.83;;;10.37;;
7205;SDS011;3644;53.480;10.004;2024-01-10T07:31:39;21.80;;;12.23;;
7205;SDS011;3644;53.480;10.004;2024-01-10T07:34:05;23.30;;;10.93;;
7205;SDS011;3644;53.480;10.004;2024-01-10T07:36:31;28.60;;;12.33;;
7205;SDS011;3644;53.480;10.004;2024-01-10T07:38:58;31.53;;;13.93;;
7205;SDS011;3644;53.480;10.004;2024-01-10T07:41:24;33.10;;;14.47;;
7205;SDS011;3644;53.480;10.004;2024-01-10T07:43:50;22.93;;;12.07;;
7205;SDS011;3644;53.480;10.004;2024-01-10T07:46:15;30.00;;;13.53;;
7205;SDS011;3644;53.480;10.004;2024-01-10T07:48:42;30.33;;;15.40;;
7205;SDS011;3644;53.480;10.004;2024-01-10T07:51:07;20.53;;;10.70;;
7205;SDS011;3644;53.480;10.004;2024-01-10T07:53:33;24.80;;;14.20;;
7205;SDS011;3644;53.480;10.004;2024-01-10T07:55:58;32.63;;;16.40;;
7205;SDS011;3644;53.480;10.004;2024-01-10T07:58:24;27.53;;;15.40;;
7205;SDS011;3644;53.480;10.004;2024-01-10T08:00:50;21.77;;;11.60;;
7205;SDS011;3644;53.480;10.004;2024-01-10T08:03:16;23.23;;;11.13;;
7205;SDS011;3644;53.480;10.004;2024-01-10T08:05:42;20.87;;;11.63;;
7205;SDS011;3644;53.480;10.004;2024-01-10T08:08:08;19.77;;;9.90;;
7205;SDS011;3644;53.480;10.004;2024-01-10T08:10:34;31.97;;;12.83;;
7205;SDS011;3644;53.480;10.004;2024-01-10T08:12:59;21.47;;;12.40;;
7205;SDS011;3644;53.480;10.004;2024-01-10T08:15:25;26.10;;;12.93;;
7205;SDS011;3644;53.480;10.004;2024-01-10T08:17:51;22.60;;;11.60;;
7205;SDS011;3644;53.480;10.004;2024-01-10T08:20:16;23.23;;;12.73;;
7205;SDS011;3644;53.480;10.004;2024-01-10T08:22:45;23.57;;;11.60;;
7205;SDS011;3644;53.480;10.004;2024-01-10T08:25:12;21.90;;;13.07;;
7205;SDS011;3644;53.480;10.004;2024-01-10T08:27:40;23.57;;;13.20;;
7205;SDS011;3644;53.480;10.004;2024-01-10T08:30:06;30.13;;;13.30;;
7205;SDS011;3644;53.480;10.004;2024-01-10T08:32:34;25.00;;;12.17;;
7205;SDS011;3644;53.480;10.004;2024-01-10T08:35:00;22.17;;;11.70;;
7205;SDS011;3644;53.480;10.004;2024-01-10T08:37:25;20.90;;;11.77;;
7205;SDS011;3644;53.480;10.004;2024-01-10T08:39:51;23.60;;;12.87;;
7205;SDS011;3644;53.480;10.004;2024-01-10T08:42:16;20.13;;;11.70;;
7205;SDS011;3644;53.480;10.004;2024-01-10T08:44:42;24.70;;;13.00;;
7205;SDS011;3644;53.480;10.004;2024-01-10T08:47:08;20.63;;;11.80;;
7205;SDS011;3644;53.480;10.004;2024-01-10T08:49:33;16.60;;;10.70;;
7205;SDS011;3644;53.480;10.004;2024-01-10T08:51:59;21.00;;;10.70;;
7205;SDS011;3644;53.480;10.004;2024-01-10T08:54:24;17.17;;;10.67;;
7205;SDS011;3644;53.480;10.004;2024-01-10T08:56:50;17.87;;;10.03;;
7205;SDS011;3644;53.480;10.004;2024-01-10T08:59:15;18.83;;;10.53;;
7205;SDS011;3644;53.480;10.004;2024-01-10T09:01:41;21.53;;;11.20;;
7205;SDS011;3644;53.480;10.004;2024-01-10T09:04:07;17.50;;;10.97;;
7205;SDS011;3644;53.480;10.004;2024-01-10T09:06:33;17.37;;;9.63;;
7205;SDS011;3644;53.480;10.004;2024-01-10T09:09:00;19.93;;;11.53;;
7205;SDS011;3644;53.480;10.004;2024-01-10T09:11:26;19.10;;;11.00;;
7205;SDS011;3644;53.480;10.004;2024-01-10T09:13:51;26.50;;;9.87;;
7205;SDS011;3644;53.480;10.004;2024-01-10T09:16:17;25.73;;;11.23;;
7205;SDS011;3644;53.480;10.004;2024-01-10T09:18:45;21.07;;;10.53;;
7205;SDS011;3644;53.480;10.004;2024-01-10T09:21:11;14.80;;;8.97;;
7205;SDS011;3644;53.480;10.004;2024-01-10T09:23:37;29.13;;;8.67;;
7205;SDS011;3644;53.480;10.004;2024-01-10T09:26:03;17.87;;;8.60;;
7205;SDS011;3644;53.480;10.004;2024-01-10T09:28:28;15.13;;;9.10;;
7205;SDS011;3644;53.480;10.004;2024-01-10T09:30:54;17.57;;;8.67;;
7205;SDS011;3644;53.480;10.004;2024-01-10T09:33:20;15.03;;;8.70;;
7205;SDS011;3644;53.480;10.004;2024-01-10T09:35:46;12.43;;;8.10;;
7205;SDS011;3644;53.480;10.004;2024-01-10T09:38:12;18.63;;;9.40;;
7205;SDS011;3644;53.480;10.004;2024-01-10T09:40:37;14.87;;;9.43;;
7205;SDS011;3644;53.480;10.004;2024-01-10T09:43:04;21.27;;;8.77;;
7205;SDS011;3644;53.480;10.004;2024-01-10T09:45:34;17.70;;;9.07;;
7205;SDS011;3644;53.480;10.004;2024-01-10T09:48:00;17.63;;;7.87;;
7205;SDS011;3644;53.480;10.004;2024-01-10T09:50:26;23.40;;;10.23;;
7205;SDS011;3644;53.480;10.004;2024-01-10T09:52:52;16.63;;;9.33;;
7205;SDS011;3644;53.480;10.004;2024-01-10T09:55:23;10.90;;;8.10;;
7205;SDS011;3644;53.480;10.004;2024-01-10T09:57:51;19.53;;;10.13;;
7205;SDS011;3644;53.480;10.004;2024-01-10T10:00:17;15.27;;;9.10;;
7205;SDS011;3644;53.480;10.004;2024-01-10T10:02:43;13.97;;;7.30;;
7205;SDS011;3644;53.480;10.004;2024-01-10T10:05:13;13.30;;;8.23;;
7205;SDS011;3644;53.480;10.004;2024-01-10T10:07:47;13.07;;;8.83;;
7205;SDS011;3644;53.480;10.004;2024-01-10T10:10:17;9.63;;;6.90;;
7205;SDS011;3644;53.480;10.004;2024-01-10T10:12:43;16.17;;;8.57;;
7205;SDS011;3644;53.480;10.004;2024-01-10T10:15:11;12.67;;;8.83;;
7205;SDS011;3644;53.480;10.004;2024-01-10T10:17:57;16.80;;;8.13;;
7205;SDS011;3644;53.480;10.004;2024-01-10T10:28:03;11.20;;;7.50;;
7205;SDS011;3644;53.480;10.004;2024-01-10T10:30:32;15.80;;;8.40;;
7205;SDS011;3644;53.480;10.004;2024-01-10T10:32:58;12.80;;;7.80;;
7205;SDS011;3644;53.480;10.004;2024-01-10T10:35:23;22.17;;;10.73;;
7205;SDS011;3644;53.480;10.004;2024-01-10T10:37:50;10.20;;;7.27;;
7205;SDS011;3644;53.480;10.004;2024-01-10T10:40:17;10.30;;;7.60;;
7205;SDS011;3644;53.480;10.004;2024-01-10T10:42:44;16.00;;;8.43;;
7205;SDS011;3644;53.480;10.004;2024-01-10T10:45:12;13.23;;;7.63;;
7205;SDS011;3644;53.480;10.004;2024-01-10T10:47:41;11.00;;;7.30;;
7205;SDS011;3644;53.480;10.004;2024-01-10T10:50:09;13.37;;;7.27;;
7205;SDS011;3644;53.480;10.004;2024-01-10T10:52:38;12.63;;;7.60;;
7205;SDS011;3644;53.480;10.004;2024-01-10T10:55:08;10.23;;;6.83;;
7205;SDS011;3644;53.480;10.004;2024-01-10T10:57:35;12.50;;;7.77;;
7205;SDS011;3644;53.480;10.004;2024-01-10T11:00:01;8.97;;;7.00;;
7205;SDS011;3644;53.480;10.004;2024-01-10T11:02:27;14.90;;;7.80;;
7205;SDS011;3644;53.480;10.004;2024-01-10T11:04:53;13.50;;;9.20;;
7205;SDS011;3644;53.480;10.004;2024-01-10T11:07:19;16.60;;;9.67;;
7205;SDS011;3644;53.480;10.004;2024-01-10T11:09:45;18.10;;;9.83;;
7205;SDS011;3644;53.480;10.004;2024-01-10T11:12:17;17.40;;;10.80;;
7205;SDS011;3644;53.480;10.004;2024-01-10T11:15:04;17.47;;;10.77;;
7205;SDS011;3644;53.480;10.004;2024-01-10T11:18:08;20.03;;;11.57;;
7205;SDS011;3644;53.480;10.004;2024-01-10T11:21:06;16.20;;;10.47;;
7205;SDS011;3644;53.480;10.004;2024-01-10T11:23:43;19.07;;;11.87;;
7205;SDS011;3644;53.480;10.004;2024-01-10T11:26:11;18.80;;;9.60;;
7205;SDS011;3644;53.480;10.004;2024-01-10T11:28:39;27.00;;;10.47;;
7205;SDS011;3644;53.480;10.004;2024-01-10T11:31:06;24.67;;;11.97;;
7205;SDS011;3644;53.480;10.004;2024-01-10T11:33:33;14.67;;;9.17;;
7205;SDS011;3644;53.480;10.004;2024-01-10T11:41:27;16.20;;;9.83;;
7205;SDS011;3644;53.480;10.004;2024-01-10T11:46:46;16.73;;;9.73;;
7205;SDS011;3644;53.480;10.004;2024-01-10T11:49:17;14.90;;;9.23;;
7205;SDS011;3644;53.480;10.004;2024-01-10T11:51:47;16.50;;;10.03;;
7205;SDS011;3644;53.480;10.004;2024-01-10T11:57:08;20.67;;;10.93;;
7205;SDS011;3644;53.480;10.004;2024-01-10T11:59:40;14.60;;;8.00;;
7205;SDS011;3644;53.480;10.004;2024-01-10T12:02:07;18.50;;;8.87;;
7205;SDS011;3644;53.480;10.004;2024-01-10T12:04:33;21.57;;;9.20;;
7205;SDS011;3644;53.480;10.004;2024-01-10T12:06:59;25.80;;;10.07;;
7205;SDS011;3644;53.480;10.004;2024-01-10T12:09:27;19.13;;;10.70;;
7205;SDS011;3644;53.480;10.004;2024-01-10T12:11:52;23.10;;;10.27;;
7205;SDS011;3644;53.480;10.004;2024-01-10T12:14:18;15.43;;;9.40;;
7205;SDS011;3644;53.480;10.004;2024-01-10T12:16:45;20.40;;;10.07;;
7205;SDS011;3644;53.480;10.004;2024-01-10T12:19:11;16.00;;;9.03;;
7205;SDS011;3644;53.480;10.004;2024-01-10T12:21:37;19.13;;;8.73;;
7205;SDS011;3644;53.480;10.004;2024-01-10T12:24:05;25.30;;;10.97;;
7205;SDS011;3644;53.480;10.004;2024-01-10T12:26:31;18.53;;;10.40;;
7205;SDS011;3644;53.480;10.004;2024-01-10T12:28:58;21.80;;;9.77;;
7205;SDS011;3644;53.480;10.004;2024-01-10T12:31:28;19.17;;;11.07;;
7205;SDS011;3644;53.480;10.004;2024-01-10T12:33:57;19.20;;;10.93;;
7205;SDS011;3644;53.480;10.004;2024-01-10T12:36:24;23.70;;;11.93;;
7205;SDS011;3644;53.480;10.004;2024-01-10T12:38:50;23.60;;;10.37;;
7205;SDS011;3644;53.480;10.004;2024-01-10T12:41:16;16.17;;;9.40;;
7205;SDS011;3644;53.480;10.004;2024-01-10T12:43:43;20.60;;;9.90;;
7205;SDS011;3644;53.480;10.004;2024-01-10T12:46:15;22.97;;;11.00;;
7205;SDS011;3644;53.480;10.004;2024-01-10T12:48:41;19.67;;;10.47;;
7205;SDS011;3644;53.480;10.004;2024-01-10T12:51:07;12.50;;;8.83;;
7205;SDS011;3644;53.480;10.004;2024-01-10T12:53:43;20.00;;;10.17;;
7205;SDS011;3644;53.480;10.004;2024-01-10T12:56:09;17.53;;;9.53;;
7205;SDS011;3644;53.480;10.004;2024-01-10T12:58:39;21.70;;;9.40;;
7205;SDS011;3644;53.480;10.004;2024-01-10T13:01:07;16.00;;;9.60;;
7205;SDS011;3644;53.480;10.004;2024-01-10T13:03:33;14.07;;;8.93;;
7205;SDS011;3644;53.480;10.004;2024-01-10T13:05:59;19.00;;;9.57;;
7205;SDS011;3644;53.480;10.004;2024-01-10T13:08:24;20.07;;;10.50;;
7205;SDS011;3644;53.480;10.004;2024-01-10T13:10:50;15.43;;;9.47;;
7205;SDS011;3644;53.480;10.004;2024-01-10T13:13:15;16.93;;;9.77;;
7205;SDS011;3644;53.480;10.004;2024-01-10T13:15:43;15.10;;;9.10;;
7205;SDS011;3644;53.480;10.004;2024-01-10T13:18:10;20.40;;;10.00;;
7205;SDS011;3644;53.480;10.004;2024-01-10T13:20:35;17.20;;;9.73;;
7205;SDS011;3644;53.480;10.004;2024-01-10T13:23:02;21.90;;;9.97;;
7205;SDS011;3644;53.480;10.004;2024-01-10T13:25:28;21.27;;;10.37;;
7205;SDS011;3644;53.480;10.004;2024-01-10T13:27:54;14.37;;;7.70;;
7205;SDS011;3644;53.480;10.004;2024-01-10T13:30:20;14.40;;;8.90;;
7205;SDS011;3644;53.480;10.004;2024-01-10T13:32:45;19.80;;;10.13;;
7205;SDS011;3644;53.480;10.004;2024-01-10T13:35:12;22.17;;;10.67;;
7205;SDS011;3644;53.480;10.004;2024-01-10T13:37:44;25.30;;;11.67;;
7205;SDS011;3644;53.480;10.004;2024-01-10T13:40:10;14.47;;;9.07;;
7205;SDS011;3644;53.480;10.004;2024-01-10T13:42:39;17.17;;;9.10;;
7205;SDS011;3644;53.480;10.004;2024-01-10T13:45:06;15.27;;;9.20;;
7205;SDS011;3644;53.480;10.004;2024-01-10T13:47:38;18.13;;;9.37;;
7205;SDS011;3644;53.480;10.004;2024-01-10T13:50:05;19.43;;;9.43;;
7205;SDS011;3644;53.480;10.004;2024-01-10T13:52:32;20.80;;;8.80;;
7205;SDS011;3644;53.480;10.004;2024-01-10T13:54:58;13.67;;;8.70;;
7205;SDS011;3644;53.480;10.004;2024-01-10T13:57:24;14.03;;;8.20;;
7205;SDS011;3644;53.480;10.004;2024-01-10T13:59:50;13.47;;;8.60;;
7205;SDS011;3644;53.480;10.004;2024-01-10T14:02:15;14.63;;;8.33;;
7205;SDS011;3644;53.480;10.004;2024-01-10T14:04:43;19.03;;;9.13;;
7205;SDS011;3644;53.480;10.004;2024-01-10T14:07:09;15.07;;;8.60;;
7205;SDS011;3644;53.480;10.004;2024-01-10T14:09:35;11.07;;;8.30;;
7205;SDS011;3644;53.480;10.004;2024-01-10T14:12:00;11.07;;;6.80;;
7205;SDS011;3644;53.480;10.004;2024-01-10T14:14:26;10.53;;;7.20;;
7205;SDS011;3644;53.480;10.004;2024-01-10T14:16:51;11.77;;;8.13;;
7205;SDS011;3644;53.480;10.004;2024-01-10T14:19:17;28.27;;;11.20;;
7205;SDS011;3644;53.480;10.004;2024-01-10T14:21:43;14.90;;;8.37;;
7205;SDS011;3644;53.480;10.004;2024-01-10T14:24:08;18.50;;;8.80;;
7205;SDS011;3644;53.480;10.004;2024-01-10T14:26:34;15.73;;;9.43;;
7205;SDS011;3644;53.480;10.004;2024-01-10T14:29:00;13.17;;;8.13;;
7205;SDS011;3644;53.480;10.004;2024-01-10T14:31:26;13.30;;;8.10;;
7205;SDS011;3644;53.480;10.004;2024-01-10T14:33:52;15.20;;;8.30;;
7205;SDS011;3644;53.480;10.004;2024-01-10T14:36:18;17.37;;;9.00;;
7205;SDS011;3644;53.480;10.004;2024-01-10T14:38:44;20.20;;;10.03;;
7205;SDS011;3644;53.480;10.004;2024-01-10T14:41:09;14.47;;;9.03;;
7205;SDS011;3644;53.480;10.004;2024-01-10T14:43:36;14.60;;;8.83;;
7205;SDS011;3644;53.480;10.004;2024-01-10T14:46:01;14.00;;;7.80;;
7205;SDS011;3644;53.480;10.004;2024-01-10T14:48:27;15.47;;;8.13;;
7205;SDS011;3644;53.480;10.004;2024-01-10T14:50:53;24.07;;;10.47;;
7205;SDS011;3644;53.480;10.004;2024-01-10T14:53:18;17.33;;;8.97;;